sensor_id;sensor_type;location;lat;lon;timestamp;P1;durP1;ratioP1;P2;durP2;ratioP2
5742;SDS011;2896;53.500;10.020;2022-10-31T00:01:10;26.43;;;20.17;;
5742;SDS011;2896;53.500;10.020;2022-10-31T00:03:37;27.03;;;20.00;;
5742;SDS011;2896;53.500;10.020;2022-10-31T00:06:04;26.43;;;18.67;;
5742;SDS011;2896;53.500;10.020;2022-10-31T00:08:31;29.03;;;21.50;;
5742;SDS011;2896;53.500;10.020;2022-10-31T00:10:57;28.80;;;21.63;;
5742;SDS011;2896;53.500;10.020;2022-10-31T00:13:24;26.10;;;20.40;;
5742;SDS011;2896;53.500;10.020;2022-10-31T00:15:52;29.30;;;19.87;;
5742;SDS011;2896;53.500;10.020;2022-10-31T00:18:18;29.60;;;21.40;;
5742;SDS011;2896;53.500;10.020;2022-10-31T00:20:45;25.03;;;19.57;;
5742;SDS011;2896;53.500;10.020;2022-10-31T00:23:12;27.53;;;20.17;;
5742;SDS011;2896;53.500;10.020;2022-10-31T00:25:39;25.63;;;17.90;;
5742;SDS011;2896;53.500;10.020;2022-10-31T00:28:06;27.30;;;20.47;;
5742;SDS011;2896;53.500;10.020;2022-10-31T00:30:35;28.80;;;20.23;;
5742;SDS011;2896;53.500;10.020;2022-10-31T00:33:04;29.70;;;21.30;;
5742;SDS011;2896;53.500;10.020;2022-10-31T00:35:30;32.43;;;20.90;;
5742;SDS011;2896;53.500;10.020;2022-10-31T00:37:57;27.77;;;20.10;;
5742;SDS011;2896;53.500;10.020;2022-10-31T00:40:23;25.47;;;19.17;;
5742;SDS011;2896;53.500;10.020;2022-10-31T00:42:50;29.03;;;21.33;;
5742;SDS011;2896;53.500;10.020;2022-10-31T00:45:17;28.60;;;20.90;;
5742;SDS011;2896;53.500;10.020;2022-10-31T00:47:43;25.90;;;19.10;;
5742;SDS011;2896;53.500;10.020;2022-10-31T00:50:11;30.03;;;21.60;;
5742;SDS011;2896;53.500;10.020;2022-10-31T00:52:38;33.30;;;22.20;;
5742;SDS011;2896;53.500;10.020;2022-10-31T00:55:04;29.73;;;19.20;;
5742;SDS011;2896;53.500;10.020;2022-10-31T00:57:31;22.80;;;18.10;;
5742;SDS011;2896;53.500;10.020;2022-10-31T00:59:58;23.67;;;18.27;;
5742;SDS011;2896;53.500;10.020;2022-10-31T01:02:25;18.20;;;15.93;;
5742;SDS011;2896;53.500;10.020;2022-10-31T01:04:51;19.50;;;16.03;;
5742;SDS011;2896;53.500;10.020;2022-10-31T01:07:19;17.60;;;15.70;;
5742;SDS011;2896;53.500;10.020;2022-10-31T01:09:46;23.57;;;16.13;;
5742;SDS011;2896;53.500;10.020;2022-10-31T01:12:12;17.63;;;15.83;;
5742;SDS011;2896;53.500;10.020;2022-10-31T01:14:42;18.30;;;16.10;;
5742;SDS011;2896;53.500;10.020;2022-10-31T01:17:09;21.30;;;16.43;;
5742;SDS011;2896;53.500;10.020;2022-10-31T01:19:35;18.03;;;15.80;;
5742;SDS011;2896;53.500;10.020;2022-10-31T01:22:02;20.27;;;16.33;;
5742;SDS011;2896;53.500;10.020;2022-10-31T01:24:30;23.50;;;18.03;;
5742;SDS011;2896;53.500;10.020;2022-10-31T01:26:57;26.67;;;20.70;;
5742;SDS011;2896;53.500;10.020;2022-10-31T01:29:23;29.80;;;21.73;;
5742;SDS011;2896;53.500;10.020;2022-10-31T01:31:50;35.07;;;22.60;;
5742;SDS011;2896;53.500;10.020;2022-10-31T01:34:16;52.30;;;29.17;;
5742;SDS011;2896;53.500;10.020;2022-10-31T01:36:44;97.73;;;41.47;;
5742;SDS011;2896;53.500;10.020;2022-10-31T01:39:12;96.07;;;43.20;;
5742;SDS011;2896;53.500;10.020;2022-10-31T01:41:42;100.00;;;42.80;;
5742;SDS011;2896;53.500;10.020;2022-10-31T01:47:17;116.57;;;49.17;;
5742;SDS011;2896;53.500;10.020;2022-10-31T01:49:48;110.30;;;48.67;;
5742;SDS011;2896;53.500;10.020;2022-10-31T01:52:19;121.93;;;48.83;;
5742;SDS011;2896;53.500;10.020;2022-10-31T01:54:51;175.10;;;60.83;;
5742;SDS011;2896;53.500;10.020;2022-10-31T01:57:24;136.73;;;55.90;;
5742;SDS011;2896;53.500;10.020;2022-10-31T01:59:52;115.93;;;53.30;;
5742;SDS011;2896;53.500;10.020;2022-10-31T02:02:22;145.43;;;52.47;;
5742;SDS011;2896;53.500;10.020;2022-10-31T02:04:49;164.07;;;59.60;;
5742;SDS011;2896;53.500;10.020;2022-10-31T02:07:18;125.60;;;51.77;;
5742;SDS011;2896;53.500;10.020;2022-10-31T02:09:50;143.50;;;56.30;;
5742;SDS011;2896;53.500;10.020;2022-10-31T02:12:19;133.53;;;56.17;;
5742;SDS011;2896;53.500;10.020;2022-10-31T02:14:48;138.57;;;53.50;;
5742;SDS011;2896;53.500;10.020;2022-10-31T02:17:15;111.87;;;50.80;;
5742;SDS011;2896;53.500;10.020;2022-10-31T02:19:44;118.97;;;48.83;;
5742;SDS011;2896;53.500;10.020;2022-10-31T02:22:19;112.50;;;47.87;;
5742;SDS011;2896;53.500;10.020;2022-10-31T02:25:02;107.73;;;48.30;;
5742;SDS011;2896;53.500;10.020;2022-10-31T02:27:50;108.17;;;44.90;;
5742;SDS011;2896;53.500;10.020;2022-10-31T02:30:29;102.40;;;43.47;;
5742;SDS011;2896;53.500;10.020;2022-10-31T02:33:08;103.57;;;47.97;;
5742;SDS011;2896;53.500;10.020;2022-10-31T02:35:49;102.40;;;42.33;;
5742;SDS011;2896;53.500;10.020;2022-10-31T02:38:24;91.60;;;43.17;;
5742;SDS011;2896;53.500;10.020;2022-10-31T02:40:59;128.77;;;48.63;;
5742;SDS011;2896;53.500;10.020;2022-10-31T02:43:32;112.37;;;46.57;;
5742;SDS011;2896;53.500;10.020;2022-10-31T02:46:06;90.73;;;43.33;;
5742;SDS011;2896;53.500;10.020;2022-10-31T02:48:38;104.97;;;43.13;;
5742;SDS011;2896;53.500;10.020;2022-10-31T02:51:08;92.33;;;43.53;;
5742;SDS011;2896;53.500;10.020;2022-10-31T02:53:37;99.53;;;43.37;;
5742;SDS011;2896;53.500;10.020;2022-10-31T02:56:05;90.07;;;41.80;;
5742;SDS011;2896;53.500;10.020;2022-10-31T02:58:37;75.07;;;36.53;;
5742;SDS011;2896;53.500;10.020;2022-10-31T03:07:15;97.77;;;40.80;;
5742;SDS011;2896;53.500;10.020;2022-10-31T03:09:51;84.67;;;39.17;;
5742;SDS011;2896;53.500;10.020;2022-10-31T03:12:26;81.13;;;36.43;;
5742;SDS011;2896;53.500;10.020;2022-10-31T03:14:59;71.60;;;36.73;;
5742;SDS011;2896;53.500;10.020;2022-10-31T03:17:33;79.60;;;37.77;;
5742;SDS011;2896;53.500;10.020;2022-10-31T03:20:06;82.87;;;38.10;;
5742;SDS011;2896;53.500;10.020;2022-10-31T03:22:36;78.47;;;39.80;;
5742;SDS011;2896;53.500;10.020;2022-10-31T03:25:06;94.20;;;38.57;;
5742;SDS011;2896;53.500;10.020;2022-10-31T03:27:35;89.20;;;38.83;;
5742;SDS011;2896;53.500;10.020;2022-10-31T03:30:04;79.17;;;35.27;;
5742;SDS011;2896;53.500;10.020;2022-10-31T03:32:34;77.03;;;37.07;;
5742;SDS011;2896;53.500;10.020;2022-10-31T03:35:07;73.10;;;36.40;;
5742;SDS011;2896;53.500;10.020;2022-10-31T03:37:36;86.77;;;39.73;;
5742;SDS011;2896;53.500;10.020;2022-10-31T03:40:05;83.70;;;36.97;;
5742;SDS011;2896;53.500;10.020;2022-10-31T03:42:34;93.27;;;39.10;;
5742;SDS011;2896;53.500;10.020;2022-10-31T03:45:05;98.20;;;41.63;;
5742;SDS011;2896;53.500;10.020;2022-10-31T03:47:35;98.83;;;40.13;;
5742;SDS011;2896;53.500;10.020;2022-10-31T03:50:04;111.10;;;44.03;;
5742;SDS011;2896;53.500;10.020;2022-10-31T03:52:33;115.73;;;45.10;;
5742;SDS011;2896;53.500;10.020;2022-10-31T03:55:05;108.57;;;44.90;;
5742;SDS011;2896;53.500;10.020;2022-10-31T03:57:37;94.57;;;44.07;;
5742;SDS011;2896;53.500;10.020;2022-10-31T04:00:08;159.60;;;51.67;;
5742;SDS011;2896;53.500;10.020;2022-10-31T04:02:38;130.93;;;48.77;;
5742;SDS011;2896;53.500;10.020;2022-10-31T04:05:08;142.90;;;49.33;;
5742;SDS011;2896;53.500;10.020;2022-10-31T04:07:39;132.23;;;49.27;;
5742;SDS011;2896;53.500;10.020;2022-10-31T04:10:10;119.63;;;49.23;;
5742;SDS011;2896;53.500;10.020;2022-10-31T04:12:39;158.40;;;52.50;;
5742;SDS011;2896;53.500;10.020;2022-10-31T04:15:07;131.03;;;49.27;;
5742;SDS011;2896;53.500;10.020;2022-10-31T04:17:36;158.60;;;54.03;;
5742;SDS011;2896;53.500;10.020;2022-10-31T04:20:06;162.93;;;52.63;;
5742;SDS011;2896;53.500;10.020;2022-10-31T04:22:33;138.37;;;51.77;;
5742;SDS011;2896;53.500;10.020;2022-10-31T04:25:01;133.80;;;51.40;;
5742;SDS011;2896;53.500;10.020;2022-10-31T04:27:28;145.73;;;54.57;;
5742;SDS011;2896;53.500;10.020;2022-10-31T04:29:54;150.47;;;52.33;;
5742;SDS011;2896;53.500;10.020;2022-10-31T04:32:21;153.37;;;52.33;;
5742;SDS011;2896;53.500;10.020;2022-10-31T04:34:48;153.17;;;53.90;;
5742;SDS011;2896;53.500;10.020;2022-10-31T04:37:14;156.17;;;55.40;;
5742;SDS011;2896;53.500;10.020;2022-10-31T04:39:41;157.03;;;55.70;;
5742;SDS011;2896;53.500;10.020;2022-10-31T04:42:09;154.70;;;55.00;;
5742;SDS011;2896;53.500;10.020;2022-10-31T04:44:36;124.67;;;48.97;;
5742;SDS011;2896;53.500;10.020;2022-10-31T04:47:02;111.17;;;46.50;;
5742;SDS011;2896;53.500;10.020;2022-10-31T04:49:29;137.37;;;49.70;;
5742;SDS011;2896;53.500;10.020;2022-10-31T04:51:56;132.53;;;47.77;;
5742;SDS011;2896;53.500;10.020;2022-10-31T04:54:23;120.57;;;48.30;;
5742;SDS011;2896;53.500;10.020;2022-10-31T04:56:49;145.83;;;51.27;;
5742;SDS011;2896;53.500;10.020;2022-10-31T04:59:20;146.23;;;52.93;;
5742;SDS011;2896;53.500;10.020;2022-10-31T05:01:47;145.07;;;52.63;;
5742;SDS011;2896;53.500;10.020;2022-10-31T05:04:13;177.93;;;58.00;;
5742;SDS011;2896;53.500;10.020;2022-10-31T05:06:40;208.90;;;61.03;;
5742;SDS011;2896;53.500;10.020;2022-10-31T05:09:07;173.93;;;60.27;;
5742;SDS011;2896;53.500;10.020;2022-10-31T05:11:33;190.37;;;60.83;;
5742;SDS011;2896;53.500;10.020;2022-10-31T05:14:00;201.53;;;61.00;;
5742;SDS011;2896;53.500;10.020;2022-10-31T05:16:28;130.67;;;52.10;;
5742;SDS011;2896;53.500;10.020;2022-10-31T05:18:54;227.67;;;64.17;;
5742;SDS011;2896;53.500;10.020;2022-10-31T05:21:21;196.93;;;62.80;;
5742;SDS011;2896;53.500;10.020;2022-10-31T05:23:48;202.00;;;63.40;;
5742;SDS011;2896;53.500;10.020;2022-10-31T05:26:15;202.30;;;64.60;;
5742;SDS011;2896;53.500;10.020;2022-10-31T05:28:41;203.20;;;62.97;;
5742;SDS011;2896;53.500;10.020;2022-10-31T05:31:08;193.27;;;61.67;;
5742;SDS011;2896;53.500;10.020;2022-10-31T05:33:36;175.23;;;56.33;;
5742;SDS011;2896;53.500;10.020;2022-10-31T05:36:03;217.53;;;63.57;;
5742;SDS011;2896;53.500;10.020;2022-10-31T05:38:30;225.03;;;64.13;;
5742;SDS011;2896;53.500;10.020;2022-10-31T05:40:56;195.10;;;59.50;;
5742;SDS011;2896;53.500;10.020;2022-10-31T05:43:25;187.87;;;57.50;;
5742;SDS011;2896;53.500;10.020;2022-10-31T05:45:51;263.47;;;69.47;;
5742;SDS011;2896;53.500;10.020;2022-10-31T05:48:18;213.30;;;61.33;;
5742;SDS011;2896;53.500;10.020;2022-10-31T05:50:46;211.70;;;61.27;;
5742;SDS011;2896;53.500;10.020;2022-10-31T05:53:14;260.80;;;61.67;;
5742;SDS011;2896;53.500;10.020;2022-10-31T05:55:41;241.93;;;59.57;;
5742;SDS011;2896;53.500;10.020;2022-10-31T05:58:08;197.37;;;56.10;;
5742;SDS011;2896;53.500;10.020;2022-10-31T06:00:36;234.47;;;58.93;;
5742;SDS011;2896;53.500;10.020;2022-10-31T06:03:03;203.87;;;54.83;;
5742;SDS011;2896;53.500;10.020;2022-10-31T06:05:31;224.27;;;60.10;;
5742;SDS011;2896;53.500;10.020;2022-10-31T06:07:59;183.07;;;53.30;;
5742;SDS011;2896;53.500;10.020;2022-10-31T06:10:26;363.63;;;69.93;;
5742;SDS011;2896;53.500;10.020;2022-10-31T06:12:53;197.47;;;57.03;;
5742;SDS011;2896;53.500;10.020;2022-10-31T06:15:20;229.43;;;56.17;;
5742;SDS011;2896;53.500;10.020;2022-10-31T06:17:47;191.63;;;56.77;;
5742;SDS011;2896;53.500;10.020;2022-10-31T06:20:22;217.47;;;57.67;;
5742;SDS011;2896;53.500;10.020;2022-10-31T06:22:49;189.70;;;53.53;;
5742;SDS011;2896;53.500;10.020;2022-10-31T06:25:17;173.47;;;51.60;;
5742;SDS011;2896;53.500;10.020;2022-10-31T06:27:43;197.67;;;53.07;;
5742;SDS011;2896;53.500;10.020;2022-10-31T06:30:10;209.00;;;56.33;;
5742;SDS011;2896;53.500;10.020;2022-10-31T06:32:37;232.10;;;59.03;;
5742;SDS011;2896;53.500;10.020;2022-10-31T06:35:04;212.63;;;54.90;;
5742;SDS011;2896;53.500;10.020;2022-10-31T06:37:32;177.17;;;49.33;;
5742;SDS011;2896;53.500;10.020;2022-10-31T06:39:58;154.13;;;47.33;;
5742;SDS011;2896;53.500;10.020;2022-10-31T06:42:26;132.50;;;43.00;;
5742;SDS011;2896;53.500;10.020;2022-10-31T06:44:53;116.27;;;38.47;;
5742;SDS011;2896;53.500;10.020;2022-10-31T06:47:20;154.37;;;50.43;;
5742;SDS011;2896;53.500;10.020;2022-10-31T06:49:46;138.20;;;44.37;;
5742;SDS011;2896;53.500;10.020;2022-10-31T06:52:13;170.90;;;49.63;;
5742;SDS011;2896;53.500;10.020;2022-10-31T06:54:40;149.70;;;44.47;;
5742;SDS011;2896;53.500;10.020;2022-10-31T06:57:06;162.03;;;48.03;;
5742;SDS011;2896;53.500;10.020;2022-10-31T06:59:34;139.90;;;45.63;;
5742;SDS011;2896;53.500;10.020;2022-10-31T07:02:01;159.57;;;49.50;;
5742;SDS011;2896;53.500;10.020;2022-10-31T07:04:27;179.87;;;53.20;;
5742;SDS011;2896;53.500;10.020;2022-10-31T07:06:54;156.73;;;48.97;;
5742;SDS011;2896;53.500;10.020;2022-10-31T07:09:21;158.90;;;48.90;;
5742;SDS011;2896;53.500;10.020;2022-10-31T07:11:47;118.60;;;43.80;;
5742;SDS011;2896;53.500;10.020;2022-10-31T07:14:14;124.17;;;44.87;;
5742;SDS011;2896;53.500;10.020;2022-10-31T07:16:42;113.77;;;40.97;;
5742;SDS011;2896;53.500;10.020;2022-10-31T07:19:08;129.53;;;43.97;;
5742;SDS011;2896;53.500;10.020;2022-10-31T07:21:35;103.53;;;38.03;;
5742;SDS011;2896;53.500;10.020;2022-10-31T07:24:02;134.53;;;44.23;;
5742;SDS011;2896;53.500;10.020;2022-10-31T07:26:29;102.93;;;37.20;;
5742;SDS011;2896;53.500;10.020;2022-10-31T07:28:56;110.20;;;41.10;;
5742;SDS011;2896;53.500;10.020;2022-10-31T07:31:24;115.97;;;41.37;;
5742;SDS011;2896;53.500;10.020;2022-10-31T07:33:52;101.43;;;37.83;;
5742;SDS011;2896;53.500;10.020;2022-10-31T07:36:18;125.80;;;44.03;;
5742;SDS011;2896;53.500;10.020;2022-10-31T07:38:45;107.93;;;38.20;;
5742;SDS011;2896;53.500;10.020;2022-10-31T07:41:11;91.03;;;36.73;;
5742;SDS011;2896;53.500;10.020;2022-10-31T07:43:38;78.47;;;34.10;;
5742;SDS011;2896;53.500;10.020;2022-10-31T07:46:04;112.17;;;42.97;;
5742;SDS011;2896;53.500;10.020;2022-10-31T07:48:31;74.63;;;32.40;;
5742;SDS011;2896;53.500;10.020;2022-10-31T07:50:59;79.77;;;32.80;;
5742;SDS011;2896;53.500;10.020;2022-10-31T07:53:26;106.97;;;42.13;;
5742;SDS011;2896;53.500;10.020;2022-10-31T07:55:52;299.63;;;47.00;;
5742;SDS011;2896;53.500;10.020;2022-10-31T07:58:19;177.37;;;43.00;;
5742;SDS011;2896;53.500;10.020;2022-10-31T08:00:46;218.53;;;43.10;;
5742;SDS011;2896;53.500;10.020;2022-10-31T08:03:14;441.97;;;49.27;;
5742;SDS011;2896;53.500;10.020;2022-10-31T08:05:42;143.77;;;39.60;;
5742;SDS011;2896;53.500;10.020;2022-10-31T08:08:12;182.73;;;39.60;;
5742;SDS011;2896;53.500;10.020;2022-10-31T08:10:39;83.73;;;34.83;;
5742;SDS011;2896;53.500;10.020;2022-10-31T08:13:07;158.80;;;40.33;;
5742;SDS011;2896;53.500;10.020;2022-10-31T08:15:35;187.93;;;41.53;;
5742;SDS011;2896;53.500;10.020;2022-10-31T08:18:04;109.13;;;36.97;;
5742;SDS011;2896;53.500;10.020;2022-10-31T08:20:31;79.77;;;34.20;;
5742;SDS011;2896;53.500;10.020;2022-10-31T08:22:58;103.57;;;38.43;;
5742;SDS011;2896;53.500;10.020;2022-10-31T08:25:28;85.23;;;32.37;;
5742;SDS011;2896;53.500;10.020;2022-10-31T08:27:55;113.43;;;37.53;;
5742;SDS011;2896;53.500;10.020;2022-10-31T08:30:23;110.40;;;36.60;;
5742;SDS011;2896;53.500;10.020;2022-10-31T08:32:56;68.37;;;29.70;;
5742;SDS011;2896;53.500;10.020;2022-10-31T08:35:24;100.80;;;35.40;;
5742;SDS011;2896;53.500;10.020;2022-10-31T08:37:52;138.13;;;40.53;;
5742;SDS011;2896;53.500;10.020;2022-10-31T08:40:19;91.47;;;37.53;;
5742;SDS011;2896;53.500;10.020;2022-10-31T08:42:47;132.13;;;42.77;;
5742;SDS011;2896;53.500;10.020;2022-10-31T08:45:20;120.53;;;43.17;;
5742;SDS011;2896;53.500;10.020;2022-10-31T08:47:47;97.73;;;38.93;;
5742;SDS011;2896;53.500;10.020;2022-10-31T08:50:14;104.93;;;39.53;;
5742;SDS011;2896;53.500;10.020;2022-10-31T08:52:40;124.43;;;43.33;;
5742;SDS011;2896;53.500;10.020;2022-10-31T08:55:07;115.17;;;41.43;;
5742;SDS011;2896;53.500;10.020;2022-10-31T08:57:34;86.00;;;38.13;;
5742;SDS011;2896;53.500;10.020;2022-10-31T09:00:02;99.20;;;39.80;;
5742;SDS011;2896;53.500;10.020;2022-10-31T09:02:30;119.90;;;41.23;;
5742;SDS011;2896;53.500;10.020;2022-10-31T09:04:56;86.33;;;36.27;;
5742;SDS011;2896;53.500;10.020;2022-10-31T09:07:23;88.23;;;32.03;;
5742;SDS011;2896;53.500;10.020;2022-10-31T09:09:50;67.97;;;32.93;;
5742;SDS011;2896;53.500;10.020;2022-10-31T09:12:16;75.83;;;33.33;;
5742;SDS011;2896;53.500;10.020;2022-10-31T09:14:43;95.97;;;34.67;;
5742;SDS011;2896;53.500;10.020;2022-10-31T09:17:11;87.23;;;32.10;;
5742;SDS011;2896;53.500;10.020;2022-10-31T09:19:37;106.87;;;36.10;;
5742;SDS011;2896;53.500;10.020;2022-10-31T09:22:04;103.23;;;37.87;;
5742;SDS011;2896;53.500;10.020;2022-10-31T09:24:31;85.90;;;36.37;;
5742;SDS011;2896;53.500;10.020;2022-10-31T09:26:58;86.73;;;34.00;;
5742;SDS011;2896;53.500;10.020;2022-10-31T09:29:24;97.43;;;33.37;;
5742;SDS011;2896;53.500;10.020;2022-10-31T09:31:51;88.57;;;32.03;;
5742;SDS011;2896;53.500;10.020;2022-10-31T09:34:19;81.53;;;30.30;;
5742;SDS011;2896;53.500;10.020;2022-10-31T09:36:45;80.13;;;31.93;;
5742;SDS011;2896;53.500;10.020;2022-10-31T09:39:12;77.17;;;31.43;;
5742;SDS011;2896;53.500;10.020;2022-10-31T09:41:47;91.00;;;35.07;;
5742;SDS011;2896;53.500;10.020;2022-10-31T09:44:26;77.37;;;29.77;;
5742;SDS011;2896;53.500;10.020;2022-10-31T09:47:04;87.63;;;32.23;;
5742;SDS011;2896;53.500;10.020;2022-10-31T09:49:41;78.70;;;32.07;;
5742;SDS011;2896;53.500;10.020;2022-10-31T09:52:20;65.23;;;28.27;;
5742;SDS011;2896;53.500;10.020;2022-10-31T09:54:51;105.80;;;39.57;;
5742;SDS011;2896;53.500;10.020;2022-10-31T09:57:22;100.17;;;37.50;;
5742;SDS011;2896;53.500;10.020;2022-10-31T09:59:53;78.00;;;33.07;;
5742;SDS011;2896;53.500;10.020;2022-10-31T10:02:21;103.00;;;39.40;;
5742;SDS011;2896;53.500;10.020;2022-10-31T10:04:56;124.20;;;42.90;;
5742;SDS011;2896;53.500;10.020;2022-10-31T10:07:27;89.10;;;39.03;;
5742;SDS011;2896;53.500;10.020;2022-10-31T10:10:05;88.70;;;37.33;;
5742;SDS011;2896;53.500;10.020;2022-10-31T10:12:43;86.13;;;36.07;;
5742;SDS011;2896;53.500;10.020;2022-10-31T10:15:31;74.40;;;31.20;;
5742;SDS011;2896;53.500;10.020;2022-10-31T10:18:09;90.83;;;35.37;;
5742;SDS011;2896;53.500;10.020;2022-10-31T10:21:01;89.73;;;37.97;;
5742;SDS011;2896;53.500;10.020;2022-10-31T10:23:39;72.90;;;29.20;;
5742;SDS011;2896;53.500;10.020;2022-10-31T10:26:17;55.53;;;25.03;;
5742;SDS011;2896;53.500;10.020;2022-10-31T10:28:46;53.40;;;27.80;;
5742;SDS011;2896;53.500;10.020;2022-10-31T10:31:16;87.40;;;34.47;;
5742;SDS011;2896;53.500;10.020;2022-10-31T10:33:48;70.33;;;32.00;;
5742;SDS011;2896;53.500;10.020;2022-10-31T10:36:27;63.27;;;31.97;;
5742;SDS011;2896;53.500;10.020;2022-10-31T10:39:03;71.00;;;33.20;;
5742;SDS011;2896;53.500;10.020;2022-10-31T10:41:41;73.07;;;33.13;;
5742;SDS011;2896;53.500;10.020;2022-10-31T10:44:10;65.27;;;32.50;;
5742;SDS011;2896;53.500;10.020;2022-10-31T10:46:40;86.77;;;37.00;;
5742;SDS011;2896;53.500;10.020;2022-10-31T10:49:28;84.97;;;36.83;;
5742;SDS011;2896;53.500;10.020;2022-10-31T10:51:59;75.83;;;36.43;;
5742;SDS011;2896;53.500;10.020;2022-10-31T10:54:42;99.53;;;41.07;;
5742;SDS011;2896;53.500;10.020;2022-10-31T10:57:22;81.47;;;37.60;;
5742;SDS011;2896;53.500;10.020;2022-10-31T10:59:58;90.53;;;37.13;;
5742;SDS011;2896;53.500;10.020;2022-10-31T11:02:31;84.73;;;35.17;;
5742;SDS011;2896;53.500;10.020;2022-10-31T11:04:58;61.63;;;30.57;;
5742;SDS011;2896;53.500;10.020;2022-10-31T11:07:38;64.10;;;31.40;;
5742;SDS011;2896;53.500;10.020;2022-10-31T11:10:05;63.53;;;32.87;;
5742;SDS011;2896;53.500;10.020;2022-10-31T11:12:40;71.90;;;33.97;;
5742;SDS011;2896;53.500;10.020;2022-10-31T11:15:16;80.27;;;34.80;;
5742;SDS011;2896;53.500;10.020;2022-10-31T11:17:47;61.77;;;32.97;;
5742;SDS011;2896;53.500;10.020;2022-10-31T11:20:26;82.83;;;35.27;;
5742;SDS011;2896;53.500;10.020;2022-10-31T11:23:10;77.17;;;36.73;;
5742;SDS011;2896;53.500;10.020;2022-10-31T11:25:50;66.20;;;32.10;;
5742;SDS011;2896;53.500;10.020;2022-10-31T11:28:18;66.43;;;32.93;;
5742;SDS011;2896;53.500;10.020;2022-10-31T11:30:46;66.17;;;33.50;;
5742;SDS011;2896;53.500;10.020;2022-10-31T11:33:16;71.27;;;36.00;;
5742;SDS011;2896;53.500;10.020;2022-10-31T11:35:45;87.13;;;36.27;;
5742;SDS011;2896;53.500;10.020;2022-10-31T11:38:16;59.80;;;31.60;;
5742;SDS011;2896;53.500;10.020;2022-10-31T11:40:52;62.27;;;31.43;;
5742;SDS011;2896;53.500;10.020;2022-10-31T11:43:20;65.17;;;34.73;;
5742;SDS011;2896;53.500;10.020;2022-10-31T11:45:47;68.50;;;34.43;;
5742;SDS011;2896;53.500;10.020;2022-10-31T11:48:15;69.43;;;33.30;;
5742;SDS011;2896;53.500;10.020;2022-10-31T11:50:47;55.33;;;26.10;;
5742;SDS011;2896;53.500;10.020;2022-10-31T11:53:17;43.33;;;22.97;;
5742;SDS011;2896;53.500;10.020;2022-10-31T11:55:58;46.10;;;26.07;;
5742;SDS011;2896;53.500;10.020;2022-10-31T11:58:28;54.70;;;29.40;;
5742;SDS011;2896;53.500;10.020;2022-10-31T12:00:55;52.43;;;28.30;;
5742;SDS011;2896;53.500;10.020;2022-10-31T12:03:26;49.87;;;26.43;;
5742;SDS011;2896;53.500;10.020;2022-10-31T12:06:09;45.57;;;25.73;;
5742;SDS011;2896;53.500;10.020;2022-10-31T12:08:42;44.73;;;25.33;;
5742;SDS011;2896;53.500;10.020;2022-10-31T12:11:11;46.07;;;25.97;;
5742;SDS011;2896;53.500;10.020;2022-10-31T12:13:51;44.37;;;24.93;;
5742;SDS011;2896;53.500;10.020;2022-10-31T12:16:25;41.50;;;25.33;;
5742;SDS011;2896;53.500;10.020;2022-10-31T12:18:58;46.37;;;24.50;;
5742;SDS011;2896;53.500;10.020;2022-10-31T12:21:33;43.47;;;23.53;;
5742;SDS011;2896;53.500;10.020;2022-10-31T12:24:12;35.17;;;20.37;;
5742;SDS011;2896;53.500;10.020;2022-10-31T12:26:50;35.53;;;18.30;;
5742;SDS011;2896;53.500;10.020;2022-10-31T12:29:36;27.00;;;17.83;;
5742;SDS011;2896;53.500;10.020;2022-10-31T12:32:18;29.90;;;18.00;;
5742;SDS011;2896;53.500;10.020;2022-10-31T12:35:05;23.07;;;16.23;;
5742;SDS011;2896;53.500;10.020;2022-10-31T12:38:03;25.77;;;16.40;;
5742;SDS011;2896;53.500;10.020;2022-10-31T12:40:51;34.10;;;18.50;;
5742;SDS011;2896;53.500;10.020;2022-10-31T12:43:30;28.47;;;16.57;;
5742;SDS011;2896;53.500;10.020;2022-10-31T12:46:06;24.43;;;17.80;;
5742;SDS011;2896;53.500;10.020;2022-10-31T12:48:40;24.60;;;15.63;;
5742;SDS011;2896;53.500;10.020;2022-10-31T12:51:21;29.23;;;16.03;;
5742;SDS011;2896;53.500;10.020;2022-10-31T12:54:02;25.10;;;15.47;;
5742;SDS011;2896;53.500;10.020;2022-10-31T12:56:43;23.23;;;16.90;;
5742;SDS011;2896;53.500;10.020;2022-10-31T12:59:17;24.43;;;16.67;;
5742;SDS011;2896;53.500;10.020;2022-10-31T13:01:51;27.73;;;18.00;;
5742;SDS011;2896;53.500;10.020;2022-10-31T13:04:29;23.00;;;13.77;;
5742;SDS011;2896;53.500;10.020;2022-10-31T13:07:03;22.50;;;15.33;;
5742;SDS011;2896;53.500;10.020;2022-10-31T13:09:36;26.20;;;13.57;;
5742;SDS011;2896;53.500;10.020;2022-10-31T13:12:09;40.97;;;19.70;;
5742;SDS011;2896;53.500;10.020;2022-10-31T13:14:39;19.53;;;12.73;;
5742;SDS011;2896;53.500;10.020;2022-10-31T13:17:11;15.77;;;10.53;;
5742;SDS011;2896;53.500;10.020;2022-10-31T13:19:44;18.23;;;11.40;;
5742;SDS011;2896;53.500;10.020;2022-10-31T13:22:13;19.93;;;10.47;;
5742;SDS011;2896;53.500;10.020;2022-10-31T13:24:44;10.93;;;9.73;;
5742;SDS011;2896;53.500;10.020;2022-10-31T13:27:20;18.47;;;10.00;;
5742;SDS011;2896;53.500;10.020;2022-10-31T13:29:52;18.27;;;11.93;;
5742;SDS011;2896;53.500;10.020;2022-10-31T13:32:25;17.10;;;10.77;;
5742;SDS011;2896;53.500;10.020;2022-10-31T13:34:54;19.27;;;11.07;;
5742;SDS011;2896;53.500;10.020;2022-10-31T13:37:27;25.57;;;13.70;;
5742;SDS011;2896;53.500;10.020;2022-10-31T13:40:02;19.57;;;12.73;;
5742;SDS011;2896;53.500;10.020;2022-10-31T13:42:45;19.10;;;11.60;;
5742;SDS011;2896;53.500;10.020;2022-10-31T13:45:19;16.00;;;11.17;;
5742;SDS011;2896;53.500;10.020;2022-10-31T13:47:57;17.30;;;11.47;;
5742;SDS011;2896;53.500;10.020;2022-10-31T13:50:25;23.40;;;11.43;;
5742;SDS011;2896;53.500;10.020;2022-10-31T13:53:03;25.17;;;11.50;;
5742;SDS011;2896;53.500;10.020;2022-10-31T13:55:45;16.40;;;11.53;;
5742;SDS011;2896;53.500;10.020;2022-10-31T13:58:21;20.60;;;11.47;;
5742;SDS011;2896;53.500;10.020;2022-10-31T14:01:00;19.40;;;13.80;;
5742;SDS011;2896;53.500;10.020;2022-10-31T14:03:38;20.67;;;13.50;;
5742;SDS011;2896;53.500;10.020;2022-10-31T14:06:07;20.73;;;12.30;;
5742;SDS011;2896;53.500;10.020;2022-10-31T14:08:37;20.63;;;13.60;;
5742;SDS011;2896;53.500;10.020;2022-10-31T14:11:07;26.90;;;14.23;;
5742;SDS011;2896;53.500;10.020;2022-10-31T14:13:44;27.73;;;14.73;;
5742;SDS011;2896;53.500;10.020;2022-10-31T14:16:16;21.77;;;13.83;;
5742;SDS011;2896;53.500;10.020;2022-10-31T14:18:47;21.77;;;13.50;;
5742;SDS011;2896;53.500;10.020;2022-10-31T14:21:25;21.90;;;12.67;;
5742;SDS011;2896;53.500;10.020;2022-10-31T14:23:54;21.23;;;13.80;;
5742;SDS011;2896;53.500;10.020;2022-10-31T14:26:32;22.90;;;14.77;;
5742;SDS011;2896;53.500;10.020;2022-10-31T14:29:20;21.93;;;14.77;;
5742;SDS011;2896;53.500;10.020;2022-10-31T14:31:53;23.73;;;13.97;;
5742;SDS011;2896;53.500;10.020;2022-10-31T14:34:26;24.93;;;14.80;;
5742;SDS011;2896;53.500;10.020;2022-10-31T14:37:10;23.33;;;14.67;;
5742;SDS011;2896;53.500;10.020;2022-10-31T14:39:50;33.23;;;19.13;;
5742;SDS011;2896;53.500;10.020;2022-10-31T14:42:40;27.27;;;15.87;;
5742;SDS011;2896;53.500;10.020;2022-10-31T14:45:23;33.80;;;15.87;;
5742;SDS011;2896;53.500;10.020;2022-10-31T14:47:58;30.50;;;16.57;;
5742;SDS011;2896;53.500;10.020;2022-10-31T14:50:37;22.90;;;15.37;;
5742;SDS011;2896;53.500;10.020;2022-10-31T14:53:14;25.97;;;16.10;;
5742;SDS011;2896;53.500;10.020;2022-10-31T14:55:47;27.13;;;15.67;;
5742;SDS011;2896;53.500;10.020;2022-10-31T14:58:17;29.53;;;15.77;;